Time;durP1;ratioP1;P1;durP2;ratioP2;P2;SDS_P1;SDS_P2;PMS_P1;PMS_P2;Temp;Humidity;BMP_temperature;BMP_pressure;BME280_temperature;BME280_humidity;BME280_pressure;Samples;Min_cycle;Max_cycle;Signal;HPM_P1;HPM_P2
2023/07/08 00:00:59;;;;;;;;;;;;;;;20.86;44.35;101558.97;5096667;28;20338;-70
2023/07/08 00:03:24;;;;;;;;;;;;;;;20.84;44.84;101560.88;5096943;28;20061;-70
2023/07/08 00:05:53;;;;;;;;;;;;;;;20.83;44.86;101559.13;5095399;28;19935;-70
2023/07/08 00:08:19;;;;;;;;;;;;;;;20.79;43.11;101554.84;5096648;28;19953;-70
2023/07/08 00:10:46;;;;;;;;;;;;;;;20.73;44.00;101553.38;5074153;28;19993;-70
2023/07/08 00:13:11;;;;;;;;;;;;;;;20.71;42.87;101541.81;5096617;28;19992;-70
2023/07/08 00:15:37;;;;;;;;;;;;;;;20.66;43.77;101551.09;5096527;28;19969;-70
2023/07/08 00:18:13;;;;;;;;;;;;;;;20.61;44.08;101543.25;5096469;28;20438;-70
2023/07/08 00:20:46;;;;;;;;;;;;;;;20.56;45.29;101551.56;5096415;28;19928;-69
2023/07/08 00:23:12;;;;;;;;;;;;;;;20.51;45.85;101544.66;5092792;28;19959;-70
2023/07/08 00:25:38;;;;;;;;;;;;;;;20.48;44.31;101542.13;5092644;28;20005;-71
2023/07/08 00:28:12;;;;;;;;;;;;;;;20.46;46.48;101544.03;5073831;28;20327;-70
2023/07/08 00:30:37;;;;;;;;;;;;;;;20.42;45.66;101535.22;5092305;28;19934;-70
2023/07/08 00:33:02;;;;;;;;;;;;;;;20.39;45.09;101533.56;5093518;28;20015;-70
2023/07/08 00:35:39;;;;;;;;;;;;;;;20.37;44.99;101532.78;5092791;28;19927;-70
2023/07/08 00:38:14;;;;;;;;;;;;;;;20.33;45.11;101535.72;5075052;28;19916;-70
2023/07/08 00:40:48;;;;;;;;;;;;;;;20.33;45.34;101528.53;5092950;28;20311;-70
2023/07/08 00:43:14;;;;;;;;;;;;;;;20.29;45.02;101531.44;5075028;28;20003;-70
2023/07/08 00:45:42;;;;;;;;;;;;;;;20.26;45.15;101526.25;5074299;28;20347;-70
2023/07/08 00:48:12;;;;;;;;;;;;;;;20.23;45.45;101526.38;5093422;28;20321;-70
2023/07/08 00:50:37;;;;;;;;;;;;;;;20.20;45.00;101527.41;5074586;28;19920;-70
2023/07/08 00:53:21;;;;;;;;;;;;;;;20.18;44.54;101523.94;5074543;28;19934;-70
2023/07/08 00:55:46;;;;;;;;;;;;;;;20.13;45.90;101529.56;5074584;28;19956;-70
2023/07/08 00:58:12;;;;;;;;;;;;;;;20.09;46.33;101529.78;5074880;28;19967;-70
2023/07/08 01:00:37;;;;;;;;;;;;;;;20.06;46.30;101527.25;5093002;28;19931;-70
2023/07/08 01:03:03;;;;;;;;;;;;;;;20.01;47.84;101522.09;5092906;28;20073;-70
2023/07/08 01:05:30;;;;;;;;;;;;;;;19.98;45.71;101523.13;5073460;28;19920;-70
2023/07/08 01:07:59;;;;;;;;;;;;;;;19.97;45.42;101525.91;5056877;28;20383;-70
2023/07/08 01:10:31;;;;;;;;;;;;;;;19.94;46.58;101523.38;5092684;28;19916;-70
2023/07/08 01:12:59;;;;;;;;;;;;;;;19.90;46.51;101528.00;5070088;28;19996;-70
2023/07/08 01:15:30;;;;;;;;;;;;;;;19.88;47.98;101527.25;5074866;28;19992;-70
2023/07/08 01:17:55;;;;;;;;;;;;;;;19.88;47.85;101535.31;5074353;28;19916;-70
2023/07/08 01:20:20;;;;;;;;;;;;;;;19.87;47.86;101530.84;5092367;28;20267;-70
2023/07/08 01:22:46;;;;;;;;;;;;;;;19.83;46.91;101526.59;5092494;28;19938;-70
2023/07/08 01:25:13;;;;;;;;;;;;;;;19.81;48.13;101524.94;5092732;28;19923;-70
2023/07/08 01:27:40;;;;;;;;;;;;;;;19.79;47.36;101527.69;5074064;28;20043;-70
2023/07/08 01:30:06;;;;;;;;;;;;;;;19.76;48.67;101520.66;5074150;28;20037;-69
2023/07/08 01:32:38;;;;;;;;;;;;;;;19.72;45.85;101527.09;5090953;28;19920;-70
2023/07/08 01:35:04;;;;;;;;;;;;;;;19.68;48.97;101519.28;5092210;28;20258;-69
2023/07/08 01:37:33;;;;;;;;;;;;;;;19.64;48.37;101510.47;5091335;28;19920;-70
2023/07/08 01:40:13;;;;;;;;;;;;;;;19.64;47.45;101520.34;5092214;28;19923;-70
2023/07/08 01:42:38;;;;;;;;;;;;;;;19.60;48.26;101514.25;5092157;28;20443;-70
2023/07/08 01:45:10;;;;;;;;;;;;;;;19.60;48.52;101516.06;5057211;28;19936;-70
2023/07/08 01:47:35;;;;;;;;;;;;;;;19.55;49.31;101505.53;5073738;28;19924;-70
2023/07/08 01:50:01;;;;;;;;;;;;;;;19.52;48.31;101505.69;5092028;28;20232;-70
2023/07/08 01:52:26;;;;;;;;;;;;;;;19.52;47.93;101506.56;5073380;28;19924;-70
2023/07/08 01:54:55;;;;;;;;;;;;;;;19.51;47.95;101504.84;5073415;28;19920;-70
2023/07/08 01:57:20;;;;;;;;;;;;;;;19.50;49.80;101502.22;5091805;28;20011;-70
2023/07/08 01:59:45;;;;;;;;;;;;;;;19.47;48.58;101508.59;5073393;28;20245;-70
2023/07/08 02:02:11;;;;;;;;;;;;;;;19.45;48.39;101490.81;5091803;28;19928;-70
2023/07/08 02:04:36;;;;;;;;;;;;;;;19.45;47.76;101485.44;5072162;28;20351;-70
2023/07/08 02:07:02;;;;;;;;;;;;;;;19.40;47.13;101490.19;5072940;28;20061;-70
2023/07/08 02:09:30;;;;;;;;;;;;;;;19.34;48.40;101488.66;5091799;28;19916;-70
2023/07/08 02:11:55;;;;;;;;;;;;;;;19.29;48.98;101480.81;5091385;28;19931;-69
2023/07/08 02:14:21;;;;;;;;;;;;;;;19.26;48.50;101483.66;5091505;28;20243;-70
2023/07/08 02:16:46;;;;;;;;;;;;;;;19.24;48.82;101487.38;5091389;28;19926;-70
2023/07/08 02:19:12;;;;;;;;;;;;;;;19.22;48.57;101484.75;5072879;28;19926;-70
2023/07/08 02:21:38;;;;;;;;;;;;;;;19.17;48.66;101473.38;5091061;28;19920;-70
2023/07/08 02:24:04;;;;;;;;;;;;;;;19.16;48.86;101474.28;5072762;28;20404;-70
2023/07/08 02:26:31;;;;;;;;;;;;;;;19.15;48.99;101477.06;5072845;28;19919;-70
2023/07/08 02:28:57;;;;;;;;;;;;;;;19.12;48.94;101464.66;5072737;28;20282;-70
2023/07/08 02:31:24;;;;;;;;;;;;;;;19.10;48.45;101463.84;5072806;28;19936;-70
2023/07/08 02:33:50;;;;;;;;;;;;;;;19.08;48.33;101458.53;5073236;28;20252;-70
2023/07/08 02:36:15;;;;;;;;;;;;;;;19.03;49.35;101459.72;5072653;28;19920;-70
2023/07/08 02:38:41;;;;;;;;;;;;;;;19.01;49.28;101461.59;5090954;28;20007;-70
2023/07/08 02:41:07;;;;;;;;;;;;;;;18.99;49.94;101461.69;5090711;28;19920;-71
2023/07/08 02:43:32;;;;;;;;;;;;;;;18.99;50.21;101456.31;5056883;28;19927;-70
2023/07/08 02:45:58;;;;;;;;;;;;;;;18.99;48.74;101460.78;5055874;28;19985;-69
2023/07/08 02:48:23;;;;;;;;;;;;;;;18.94;49.27;101461.03;5090518;28;19924;-70
2023/07/08 02:50:49;;;;;;;;;;;;;;;18.89;49.75;101463.03;5090238;28;19924;-69
2023/07/08 02:53:14;;;;;;;;;;;;;;;18.86;50.37;101456.00;5071979;28;19927;-69
2023/07/08 02:55:42;;;;;;;;;;;;;;;18.84;50.99;101459.69;5054814;28;20236;-68
2023/07/08 02:58:08;;;;;;;;;;;;;;;18.82;49.94;101454.44;5090596;28;19920;-68
2023/07/08 03:00:33;;;;;;;;;;;;;;;18.81;50.37;101459.84;5090701;28;19929;-68
2023/07/08 03:02:59;;;;;;;;;;;;;;;18.75;50.48;101458.31;5090694;28;19952;-68
2023/07/08 03:05:25;;;;;;;;;;;;;;;18.72;50.16;101463.81;5071117;28;19939;-69
2023/07/08 03:07:51;;;;;;;;;;;;;;;18.67;50.34;101460.47;5090451;28;20262;-69
2023/07/08 03:10:16;;;;;;;;;;;;;;;18.63;50.77;101469.59;5072308;28;20019;-69
2023/07/08 03:12:42;;;;;;;;;;;;;;;18.61;50.53;101471.47;5090487;28;19970;-69
2023/07/08 03:15:08;;;;;;;;;;;;;;;18.58;49.83;101468.94;5090470;28;20255;-69
2023/07/08 03:17:33;;;;;;;;;;;;;;;18.56;51.28;101476.16;5072521;28;20035;-69
2023/07/08 03:19:59;;;;;;;;;;;;;;;18.52;50.77;101478.13;5072010;28;19984;-69
2023/07/08 03:22:24;;;;;;;;;;;;;;;18.50;51.12;101474.66;5072426;28;19960;-68
2023/07/08 03:24:50;;;;;;;;;;;;;;;18.45;51.28;101471.31;5055314;28;20370;-69
2023/07/08 03:27:19;;;;;;;;;;;;;;;18.44;51.62;101473.09;5072344;28;19920;-69
2023/07/08 03:29:47;;;;;;;;;;;;;;;18.41;51.32;101472.38;5071907;28;20014;-69
2023/07/08 03:32:14;;;;;;;;;;;;;;;18.38;52.14;101478.72;5072292;28;19924;-69
2023/07/08 03:34:40;;;;;;;;;;;;;;;18.35;50.82;101470.84;5090426;28;19942;-69
2023/07/08 03:37:06;;;;;;;;;;;;;;;18.34;51.70;101471.75;5071959;28;20452;-69
2023/07/08 03:39:34;;;;;;;;;;;;;;;18.35;51.37;101475.34;5072071;28;19921;-69
2023/07/08 03:42:00;;;;;;;;;;;;;;;18.31;51.72;101465.69;5071867;28;19919;-69
2023/07/08 03:44:25;;;;;;;;;;;;;;;18.29;51.36;101471.09;5072029;28;19920;-69
2023/07/08 03:46:51;;;;;;;;;;;;;;;18.27;50.67;101471.19;5071950;28;19920;-69
2023/07/08 03:49:21;;;;;;;;;;;;;;;18.26;50.93;101473.91;5090263;28;19948;-69
2023/07/08 03:51:48;;;;;;;;;;;;;;;18.25;51.05;101473.06;5071579;28;19939;-69
2023/07/08 03:54:17;;;;;;;;;;;;;;;18.23;51.50;101477.59;5072019;28;19961;-69
2023/07/08 03:56:43;;;;;;;;;;;;;;;18.22;50.24;101483.91;5071872;28;19916;-69
2023/07/08 03:59:09;;;;;;;;;;;;;;;18.22;52.74;101480.34;5071818;28;19920;-69
2023/07/08 04:01:34;;;;;;;;;;;;;;;18.21;53.49;101479.47;5075615;28;19946;-69
2023/07/08 04:04:01;;;;;;;;;;;;;;;18.19;53.45;101489.38;5074923;28;20505;-69
2023/07/08 04:06:28;;;;;;;;;;;;;;;18.18;54.18;101481.44;5074306;28;19973;-69
2023/07/08 04:08:54;;;;;;;;;;;;;;;18.17;51.95;101491.25;5075503;28;19939;-69
2023/07/08 04:11:21;;;;;;;;;;;;;;;18.17;52.98;101493.06;5075190;28;19920;-69
2023/07/08 04:13:47;;;;;;;;;;;;;;;18.18;53.37;101487.66;5093895;28;20281;-69
2023/07/08 04:16:18;;;;;;;;;;;;;;;18.21;53.33;101489.34;5093667;28;19916;-69
2023/07/08 04:18:44;;;;;;;;;;;;;;;18.23;52.43;101490.13;5093761;28;19950;-69
2023/07/08 04:21:09;;;;;;;;;;;;;;;18.24;53.18;101491.88;5093338;28;20358;-69
2023/07/08 04:23:34;;;;;;;;;;;;;;;18.24;53.45;101492.75;5093503;28;19916;-69
2023/07/08 04:26:00;;;;;;;;;;;;;;;18.26;53.11;101490.00;5093308;28;19920;-69
2023/07/08 04:28:25;;;;;;;;;;;;;;;18.26;53.06;101498.03;5093626;28;19916;-69
2023/07/08 04:30:51;;;;;;;;;;;;;;;18.27;54.04;101491.72;5093265;28;19924;-68
2023/07/08 04:33:16;;;;;;;;;;;;;;;18.31;53.20;101492.47;5093594;28;20255;-69
2023/07/08 04:35:42;;;;;;;;;;;;;;;18.31;54.73;101500.53;5093203;28;19922;-69
2023/07/08 04:38:17;;;;;;;;;;;;;;;18.33;53.87;101494.16;5093461;28;20342;-69
2023/07/08 04:40:42;;;;;;;;;;;;;;;18.35;54.25;101484.25;5093158;28;19924;-68
2023/07/08 04:43:07;;;;;;;;;;;;;;;18.40;51.97;101487.59;5093086;28;19935;-69
2023/07/08 04:45:33;;;;;;;;;;;;;;;18.43;53.97;101478.53;5074434;28;19945;-69
2023/07/08 04:47:59;;;;;;;;;;;;;;;18.46;53.33;101483.75;5074792;28;19959;-69
2023/07/08 04:50:24;;;;;;;;;;;;;;;18.48;52.84;101474.69;5092844;28;19919;-69
2023/07/08 04:52:49;;;;;;;;;;;;;;;18.52;53.09;101482.59;5086534;28;20335;-69
2023/07/08 04:55:15;;;;;;;;;;;;;;;18.57;53.93;101483.25;5074575;28;19932;-69
2023/07/08 04:57:40;;;;;;;;;;;;;;;18.58;53.32;101485.88;5092647;28;19920;-69
2023/07/08 05:00:08;;;;;;;;;;;;;;;18.61;53.10;101485.75;5074409;28;19924;-69
2023/07/08 05:02:33;;;;;;;;;;;;;;;18.66;54.28;101493.59;5092749;28;19930;-69
2023/07/08 05:04:59;;;;;;;;;;;;;;;18.68;53.92;101489.03;5091507;28;20007;-69
2023/07/08 05:07:24;;;;;;;;;;;;;;;18.74;53.92;101478.00;5092537;28;19998;-69
2023/07/08 05:09:49;;;;;;;;;;;;;;;18.81;53.59;101484.00;5092310;28;20023;-69
2023/07/08 05:12:16;;;;;;;;;;;;;;;18.86;53.26;101480.16;5091959;28;20023;-69
2023/07/08 05:14:42;;;;;;;;;;;;;;;18.91;53.16;101479.94;5073764;28;19922;-68
2023/07/08 05:17:08;;;;;;;;;;;;;;;18.96;54.33;101479.72;5074297;28;19977;-68
2023/07/08 05:19:33;;;;;;;;;;;;;;;18.95;54.21;101481.56;5092000;28;20397;-69
2023/07/08 05:21:59;;;;;;;;;;;;;;;18.98;53.89;101486.78;5057449;28;20367;-69
2023/07/08 05:24:24;;;;;;;;;;;;;;;19.02;54.15;101485.69;5073876;28;19917;-68
2023/07/08 05:26:49;;;;;;;;;;;;;;;19.09;54.35;101486.28;5073838;28;19953;-69
2023/07/08 05:29:15;;;;;;;;;;;;;;;19.17;53.22;101480.56;5092579;28;19920;-69
2023/07/08 05:31:40;;;;;;;;;;;;;;;19.24;54.36;101479.31;5073773;28;19920;-69
2023/07/08 05:34:05;;;;;;;;;;;;;;;19.31;54.01;101484.31;5074253;28;20064;-69
2023/07/08 05:36:31;;;;;;;;;;;;;;;19.41;54.13;101481.16;5091904;28;19921;-69
2023/07/08 05:38:57;;;;;;;;;;;;;;;19.50;53.73;101478.91;5073968;28;19961;-69
2023/07/08 05:41:22;;;;;;;;;;;;;;;19.61;53.53;101478.38;5092166;28;19934;-69
2023/07/08 05:43:48;;;;;;;;;;;;;;;19.70;53.81;101472.56;5091818;28;19961;-69
2023/07/08 05:46:13;;;;;;;;;;;;;;;19.77;54.34;101478.50;5091970;28;20306;-69
2023/07/08 05:48:39;;;;;;;;;;;;;;;19.84;53.23;101481.78;5092252;28;19916;-69
2023/07/08 05:51:04;;;;;;;;;;;;;;;19.93;54.00;101478.59;5091571;28;19924;-69
2023/07/08 05:53:29;;;;;;;;;;;;;;;20.03;53.53;101473.63;5091874;28;19912;-69
2023/07/08 05:55:55;;;;;;;;;;;;;;;20.13;52.72;101474.91;5091688;28;19969;-69
2023/07/08 05:58:20;;;;;;;;;;;;;;;20.20;51.42;101473.63;5073710;28;19928;-69
2023/07/08 06:00:46;;;;;;;;;;;;;;;20.28;53.39;101481.31;5090138;28;20011;-69
2023/07/08 06:03:11;;;;;;;;;;;;;;;20.34;52.75;101478.28;5091168;28;19920;-69
2023/07/08 06:05:37;;;;;;;;;;;;;;;20.35;52.60;101483.59;5087578;28;19920;-68
2023/07/08 06:08:02;;;;;;;;;;;;;;;20.38;52.95;101479.88;5091557;28;19969;-69
2023/07/08 06:10:28;;;;;;;;;;;;;;;20.44;52.40;101484.06;5085848;28;19925;-69
2023/07/08 06:12:53;;;;;;;;;;;;;;;20.54;53.59;101490.69;5080174;28;19927;-69
2023/07/08 06:15:18;;;;;;;;;;;;;;;20.64;52.37;101483.03;5091443;28;19931;-69
2023/07/08 06:17:44;;;;;;;;;;;;;;;20.71;53.07;101487.97;5073607;28;20300;-69
2023/07/08 06:20:09;;;;;;;;;;;;;;;20.79;53.49;101491.13;5091314;28;19924;-69
2023/07/08 06:22:34;;;;;;;;;;;;;;;20.90;54.38;101482.47;5085715;28;20007;-70
2023/07/08 06:25:00;;;;;;;;;;;;;;;20.98;53.58;101485.59;5073271;28;19920;-69
2023/07/08 06:27:25;;;;;;;;;;;;;;;21.08;52.77;101485.09;5091318;28;19920;-69
2023/07/08 06:29:50;;;;;;;;;;;;;;;21.18;52.32;101489.88;5091309;28;20405;-69
2023/07/08 06:32:16;;;;;;;;;;;;;;;21.30;52.39;101484.78;5083916;28;19982;-69
2023/07/08 06:34:41;;;;;;;;;;;;;;;21.41;52.78;101480.56;5066448;28;20434;-69
2023/07/08 06:37:07;;;;;;;;;;;;;;;21.53;52.01;101484.34;5072874;28;19926;-69
2023/07/08 06:39:32;;;;;;;;;;;;;;;21.64;51.61;101487.31;5091337;28;19916;-69
2023/07/08 06:41:57;;;;;;;;;;;;;;;21.76;50.92;101493.81;5091255;28;19981;-69
2023/07/08 06:44:29;;;;;;;;;;;;;;;21.88;51.27;101495.78;5072854;28;19924;-69
2023/07/08 06:46:54;;;;;;;;;;;;;;;22.01;51.48;101484.28;5090936;28;19920;-69
2023/07/08 06:49:19;;;;;;;;;;;;;;;22.11;50.27;101489.00;5090685;28;19924;-69
2023/07/08 06:51:45;;;;;;;;;;;;;;;22.23;51.03;101483.84;5090345;28;20324;-69
2023/07/08 06:54:11;;;;;;;;;;;;;;;22.35;50.47;101487.63;5090075;28;20401;-69
2023/07/08 06:56:37;;;;;;;;;;;;;;;22.47;50.23;101479.66;5090467;28;19912;-69
2023/07/08 06:59:02;;;;;;;;;;;;;;;22.56;50.13;101485.47;5090951;28;20012;-69
2023/07/08 07:01:28;;;;;;;;;;;;;;;22.68;49.88;101482.00;5088124;28;20007;-69
2023/07/08 07:03:53;;;;;;;;;;;;;;;22.77;49.54;101484.09;5090680;28;19924;-69
2023/07/08 07:06:18;;;;;;;;;;;;;;;22.89;49.22;101479.78;5069216;28;19923;-69
2023/07/08 07:08:44;;;;;;;;;;;;;;;22.96;48.83;101473.00;5067446;28;19926;-69
2023/07/08 07:11:09;;;;;;;;;;;;;;;23.04;48.44;101478.81;5084919;28;19924;-69
2023/07/08 07:13:34;;;;;;;;;;;;;;;23.15;48.82;101470.91;5090881;28;19912;-69
2023/07/08 07:16:00;;;;;;;;;;;;;;;23.31;48.70;101475.28;5090630;28;19920;-69
2023/07/08 07:18:25;;;;;;;;;;;;;;;23.46;48.72;101476.13;5089891;28;19920;-70
2023/07/08 07:20:53;;;;;;;;;;;;;;;23.54;47.98;101477.38;5090300;28;20026;-69
2023/07/08 07:23:18;;;;;;;;;;;;;;;23.61;47.48;101467.88;5091832;28;19962;-69
2023/07/08 07:25:47;;;;;;;;;;;;;;;23.71;47.17;101467.25;5090441;28;19959;-69
2023/07/08 07:28:12;;;;;;;;;;;;;;;23.82;48.09;101471.00;5072339;28;19916;-69
2023/07/08 07:30:38;;;;;;;;;;;;;;;23.96;47.34;101474.59;5090382;28;19927;-69
2023/07/08 07:33:03;;;;;;;;;;;;;;;24.07;47.47;101474.75;5090786;28;20436;-69
2023/07/08 07:35:29;;;;;;;;;;;;;;;24.17;47.08;101475.81;5094257;28;20400;-70
2023/07/08 07:37:54;;;;;;;;;;;;;;;24.34;47.23;101481.94;5094886;28;20532;-70
2023/07/08 07:40:19;;;;;;;;;;;;;;;24.51;47.21;101480.78;5094359;28;20490;-70
2023/07/08 07:42:45;;;;;;;;;;;;;;;24.65;46.63;101476.13;5094327;28;20374;-70
2023/07/08 07:45:11;;;;;;;;;;;;;;;24.78;45.75;101476.09;5094358;28;20378;-70
2023/07/08 07:47:37;;;;;;;;;;;;;;;24.90;46.33;101479.78;5094425;28;19928;-70
2023/07/08 07:50:03;;;;;;;;;;;;;;;24.99;45.70;101472.81;5094537;28;19915;-69
2023/07/08 07:52:29;;;;;;;;;;;;;;;25.07;45.18;101471.28;5094289;28;19987;-70
2023/07/08 07:54:54;;;;;;;;;;;;;;;25.16;45.27;101477.88;5089926;28;19927;-70
2023/07/08 07:57:20;;;;;;;;;;;;;;;25.27;45.03;101475.28;5093684;28;20018;-70
2023/07/08 07:59:46;;;;;;;;;;;;;;;25.37;44.91;101472.75;5075414;28;19923;-70
2023/07/08 08:02:11;;;;;;;;;;;;;;;25.48;45.29;101472.78;5098272;28;19931;-70
2023/07/08 08:04:37;;;;;;;;;;;;;;;25.61;44.81;101474.59;5095902;28;19924;-70
2023/07/08 08:07:02;;;;;;;;;;;;;;;25.72;44.60;101467.38;5103323;28;19961;-73
2023/07/08 08:09:28;;;;;;;;;;;;;;;25.81;44.55;101473.06;5096050;28;19973;-73
2023/07/08 08:11:54;;;;;;;;;;;;;;;25.90;44.02;101469.69;5093665;28;20007;-72
2023/07/08 08:14:19;;;;;;;;;;;;;;;25.97;44.67;101470.97;5094044;28;20261;-73
2023/07/08 08:16:45;;;;;;;;;;;;;;;26.11;44.47;101472.59;5094116;28;19924;-73
2023/07/08 08:19:10;;;;;;;;;;;;;;;26.27;44.58;101480.44;5095749;28;20034;-73
2023/07/08 08:21:35;;;;;;;;;;;;;;;26.39;43.72;101483.03;5095629;28;20363;-73
2023/07/08 08:24:01;;;;;;;;;;;;;;;26.49;43.99;101480.47;5093510;28;19920;-73
2023/07/08 08:26:26;;;;;;;;;;;;;;;26.60;43.42;101485.06;5093830;28;19924;-73
2023/07/08 08:28:52;;;;;;;;;;;;;;;26.70;43.30;101482.47;5093771;28;19966;-73
2023/07/08 08:31:17;;;;;;;;;;;;;;;26.79;43.53;101487.19;5093651;28;20030;-73
2023/07/08 08:33:42;;;;;;;;;;;;;;;26.94;43.55;101483.22;5070616;28;19924;-73
2023/07/08 08:36:08;;;;;;;;;;;;;;;27.05;42.88;101487.78;5093476;28;20030;-73
2023/07/08 08:38:33;;;;;;;;;;;;;;;27.14;42.96;101489.75;5070389;28;19928;-73
2023/07/08 08:41:02;;;;;;;;;;;;;;;27.24;42.93;101490.75;5093190;28;19941;-73
2023/07/08 08:43:35;;;;;;;;;;;;;;;27.34;42.67;101492.72;5093577;28;19998;-73
2023/07/08 08:46:15;;;;;;;;;;;;;;;27.44;42.71;101493.69;5092066;28;19973;-73
2023/07/08 08:48:51;;;;;;;;;;;;;;;27.59;43.03;101497.84;5093570;28;19923;-73
2023/07/08 08:51:16;;;;;;;;;;;;;;;27.75;42.29;101497.44;5092516;28;19971;-73
2023/07/08 08:53:43;;;;;;;;;;;;;;;27.91;42.36;101501.63;5074834;28;19957;-73
2023/07/08 08:56:13;;;;;;;;;;;;;;;28.00;41.76;101498.97;5092399;28;19991;-73
2023/07/08 08:58:38;;;;;;;;;;;;;;;28.06;41.90;101503.03;5092982;28;20338;-73
2023/07/08 09:01:07;;;;;;;;;;;;;;;28.16;42.05;101498.50;5092618;28;19951;-74
2023/07/08 09:03:46;;;;;;;;;;;;;;;28.37;41.58;101503.13;5092792;28;19919;-73
2023/07/08 09:06:13;;;;;;;;;;;;;;;28.57;41.32;101506.84;5090259;28;20466;-73
2023/07/08 09:08:39;;;;;;;;;;;;;;;28.70;39.96;101511.06;5092603;28;20265;-74
2023/07/08 09:11:20;;;;;;;;;;;;;;;28.74;39.96;101508.97;5092352;28;20389;-73
2023/07/08 09:13:45;;;;;;;;;;;;;;;28.78;40.06;101506.81;5092683;28;20011;-74
2023/07/08 09:16:19;;;;;;;;;;;;;;;28.86;40.13;101510.59;5074162;28;20454;-74
2023/07/08 09:18:55;;;;;;;;;;;;;;;28.98;40.05;101502.31;5092560;28;19938;-74
2023/07/08 09:21:24;;;;;;;;;;;;;;;29.09;40.13;101494.94;5092372;28;19919;-74
2023/07/08 09:23:52;;;;;;;;;;;;;;;29.27;39.34;101495.13;5092580;28;19916;-73
2023/07/08 09:26:21;;;;;;;;;;;;;;;29.43;39.16;101497.31;5073854;28;19916;-74
2023/07/08 09:28:46;;;;;;;;;;;;;;;29.55;38.87;101498.03;5092662;28;20358;-74
2023/07/08 09:31:25;;;;;;;;;;;;;;;29.64;38.98;101499.94;5073982;28;19931;-74
2023/07/08 09:33:52;;;;;;;;;;;;;;;29.68;38.63;101493.22;5092406;28;19920;-74
2023/07/08 09:36:18;;;;;;;;;;;;;;;29.78;38.61;101495.97;5092143;28;19932;-74
2023/07/08 09:38:46;;;;;;;;;;;;;;;29.94;37.92;101488.03;5073686;28;20298;-74
2023/07/08 09:41:12;;;;;;;;;;;;;;;29.98;36.52;101484.03;5092108;28;19922;-74
2023/07/08 09:43:38;;;;;;;;;;;;;;;29.97;38.05;101484.16;5073911;28;20006;-74
2023/07/08 09:46:03;;;;;;;;;;;;;;;30.12;37.76;101492.78;5091827;28;19969;-74
2023/07/08 09:48:29;;;;;;;;;;;;;;;30.33;38.17;101487.19;5092114;28;20310;-74
2023/07/08 09:50:57;;;;;;;;;;;;;;;30.58;36.57;101492.00;5091706;28;20015;-73
2023/07/08 09:53:22;;;;;;;;;;;;;;;30.71;37.48;101490.81;5091864;28;20349;-74
2023/07/08 09:55:49;;;;;;;;;;;;;;;30.83;37.38;101479.56;5091457;28;19994;-74
2023/07/08 09:58:24;;;;;;;;;;;;;;;30.98;36.92;101481.81;5091082;28;20015;-73
2023/07/08 10:00:53;;;;;;;;;;;;;;;31.08;37.48;101471.66;5091376;28;20061;-74
2023/07/08 10:03:23;;;;;;;;;;;;;;;31.23;36.41;101477.50;5073436;28;19916;-74
2023/07/08 10:05:48;;;;;;;;;;;;;;;31.30;36.59;101470.38;5090286;28;20325;-75
2023/07/08 10:08:21;;;;;;;;;;;;;;;31.38;35.89;101473.25;5073102;28;19951;-75
2023/07/08 10:10:48;;;;;;;;;;;;;;;31.51;35.03;101472.88;5091305;28;19932;-75
2023/07/08 10:13:20;;;;;;;;;;;;;;;31.64;35.75;101473.34;5091323;28;19920;-75
2023/07/08 10:15:48;;;;;;;;;;;;;;;31.81;35.25;101470.78;5091246;28;19916;-75
2023/07/08 10:18:15;;;;;;;;;;;;;;;31.92;34.92;101476.88;5073155;28;20349;-75
2023/07/08 10:20:57;;;;;;;;;;;;;;;32.09;35.32;101471.56;5091004;28;19924;-75
2023/07/08 10:23:32;;;;;;;;;;;;;;;32.32;34.27;101474.63;5091242;28;19938;-75
2023/07/08 10:26:10;;;;;;;;;;;;;;;32.54;34.35;101473.25;5091063;28;20311;-75
2023/07/08 10:28:54;;;;;;;;;;;;;;;32.73;34.97;101472.19;5072945;28;19946;-75
2023/07/08 10:31:38;;;;;;;;;;;;;;;32.90;34.69;101471.22;5091091;28;20425;-75
2023/07/08 10:34:03;;;;;;;;;;;;;;;32.97;34.85;101471.44;5060738;28;20389;-76
2023/07/08 10:36:47;;;;;;;;;;;;;;;32.95;35.07;101476.22;5072731;28;19988;-76
2023/07/08 10:39:32;;;;;;;;;;;;;;;33.01;33.41;101480.19;5072698;28;20098;-75
2023/07/08 10:42:13;;;;;;;;;;;;;;;33.08;32.18;101473.06;5090345;28;19915;-75
2023/07/08 10:44:44;;;;;;;;;;;;;;;33.17;33.61;101470.16;5090687;28;19916;-76
2023/07/08 10:47:20;;;;;;;;;;;;;;;33.30;33.86;101477.06;5072054;28;19927;-76
2023/07/08 10:49:57;;;;;;;;;;;;;;;33.37;33.30;101475.38;5072284;28;20399;-76
2023/07/08 10:52:30;;;;;;;;;;;;;;;33.56;33.25;101477.00;5071714;28;20394;-76
2023/07/08 10:55:31;;;;;;;;;;;;;;;33.67;33.33;101475.81;5090792;28;20092;-77
2023/07/08 10:57:57;;;;;;;;;;;;;;;33.74;32.01;101468.59;5048095;28;20624;-81
2023/07/08 11:00:22;;;;;;;;;;;;;;;33.78;32.67;101478.22;5081844;28;19944;-74
2023/07/08 11:03:01;;;;;;;;;;;;;;;33.83;28.89;101473.09;5091269;28;19931;-74
2023/07/08 11:05:26;;;;;;;;;;;;;;;33.87;30.90;101471.69;5089592;28;19916;-72
2023/07/08 11:07:58;;;;;;;;;;;;;;;33.99;31.90;101478.56;5090555;28;19919;-74
2023/07/08 11:10:35;;;;;;;;;;;;;;;34.15;31.87;101479.63;5090563;28;19966;-77
2023/07/08 11:13:17;;;;;;;;;;;;;;;34.26;31.91;101471.03;5073140;28;19964;-76
2023/07/08 11:15:46;;;;;;;;;;;;;;;34.47;31.62;101474.09;5090911;28;19920;-77
2023/07/08 11:18:23;;;;;;;;;;;;;;;34.54;30.67;101476.97;5091125;28;19924;-75
2023/07/08 11:20:52;;;;;;;;;;;;;;;34.68;31.32;101476.28;5072170;28;19920;-78
2023/07/08 11:23:23;;;;;;;;;;;;;;;34.82;30.30;101471.09;5090768;28;19924;-78
2023/07/08 11:25:50;;;;;;;;;;;;;;;35.06;31.22;101465.47;5090902;28;20285;-77
2023/07/08 11:28:18;;;;;;;;;;;;;;;35.34;30.18;101467.78;5054788;28;19917;-77
2023/07/08 11:30:47;;;;;;;;;;;;;;;35.58;29.70;101469.50;5090941;28;19916;-79
2023/07/08 11:33:14;;;;;;;;;;;;;;;35.69;30.17;101468.25;5072730;28;20011;-78
2023/07/08 11:35:48;;;;;;;;;;;;;;;35.78;30.42;101469.91;5073517;28;19975;-83
2023/07/08 11:38:18;;;;;;;;;;;;;;;35.86;29.45;101472.59;5090853;28;19916;-75
2023/07/08 11:40:50;;;;;;;;;;;;;;;35.99;30.13;101462.84;5072071;28;19920;-79
2023/07/08 11:43:16;;;;;;;;;;;;;;;36.13;30.65;101462.06;5091002;28;19920;-76
2023/07/08 11:45:43;;;;;;;;;;;;;;;36.31;29.93;101461.72;5072674;28;19916;-78
2023/07/08 11:48:30;;;;;;;;;;;;;;;36.42;29.47;101460.38;5091086;28;19916;-80
2023/07/08 11:50:55;;;;;;;;;;;;;;;36.52;28.34;101458.19;5090509;28;20416;-78
2023/07/08 11:53:41;;;;;;;;;;;;;;;36.58;26.75;101457.50;5090671;28;19920;-77
2023/07/08 11:56:15;;;;;;;;;;;;;;;36.66;27.18;101457.38;5051367;28;20011;-77
2023/07/08 11:58:50;;;;;;;;;;;;;;;36.80;27.41;101459.28;5072618;28;20002;-82
2023/07/08 12:01:15;;;;;;;;;;;;;;;36.74;23.73;101460.03;5090379;28;20038;-79
2023/07/08 12:03:51;;;;;;;;;;;;;;;36.50;25.48;101452.91;5090222;28;19951;-82
2023/07/08 12:06:29;;;;;;;;;;;;;;;36.59;26.87;101445.41;5090191;28;19916;-83
2023/07/08 12:08:55;;;;;;;;;;;;;;;36.88;26.04;101447.28;5072522;28;19966;-82
2023/07/08 12:11:31;;;;;;;;;;;;;;;37.13;24.89;101438.69;5072604;28;19943;-84
2023/07/08 12:13:58;;;;;;;;;;;;;;;37.43;27.69;101439.47;5072879;28;20220;-79
2023/07/08 12:16:23;;;;;;;;;;;;;;;37.55;25.14;101437.06;5071799;28;19920;-80
2023/07/08 12:18:49;;;;;;;;;;;;;;;37.52;23.80;101441.09;5090469;28;19996;-81
2023/07/08 12:21:15;;;;;;;;;;;;;;;37.49;22.04;101437.81;5069921;28;20370;-81
2023/07/08 12:23:47;;;;;;;;;;;;;;;37.54;25.97;101429.81;5072767;28;19986;-80
2023/07/08 12:26:12;;;;;;;;;;;;;;;37.75;24.91;101435.34;5072861;28;20009;-79
2023/07/08 12:28:38;;;;;;;;;;;;;;;37.96;26.80;101433.59;5073246;28;19959;-80
2023/07/08 12:31:10;;;;;;;;;;;;;;;38.14;26.10;101422.94;5073325;28;20342;-80
2023/07/08 12:33:36;;;;;;;;;;;;;;;38.29;25.98;101423.69;5071831;28;20014;-80
2023/07/08 12:36:03;;;;;;;;;;;;;;;38.57;26.08;101421.97;5073087;28;19960;-81
2023/07/08 12:38:39;;;;;;;;;;;;;;;38.78;24.89;101418.25;5073534;28;19921;-80